createdAt,value
2022-11-19T00:00:13.360Z,98674.41
2022-11-19T00:01:46.093Z,98675.41
2022-11-19T00:03:19.512Z,98689.25
2022-11-19T00:04:53.416Z,98688.47
2022-11-19T00:06:28.295Z,98704.09
2022-11-19T00:08:00.161Z,98704.22
2022-11-19T00:09:32.037Z,98710.34
2022-11-19T00:11:09.296Z,98703.44
2022-11-19T00:14:14.144Z,98697.56
2022-11-19T00:15:46.114Z,98704.50
2022-11-19T00:17:17.966Z,98701.13
2022-11-19T00:18:49.847Z,98700.31
2022-11-19T00:20:21.802Z,98709.09
2022-11-19T00:21:53.651Z,98704.91
2022-11-19T00:23:25.460Z,98706.50
2022-11-19T00:24:57.321Z,98711.78
2022-11-19T00:26:29.300Z,98725.78
2022-11-19T00:28:01.092Z,98732.81
2022-11-19T00:29:32.975Z,98735.44
2022-11-19T00:31:09.703Z,98733.75
2022-11-19T00:32:41.699Z,98732.75
2022-11-19T00:34:13.729Z,98731.16
2022-11-19T00:35:45.591Z,98737.31
2022-11-19T00:37:17.459Z,98732.13
2022-11-19T00:38:49.361Z,98733.88
2022-11-19T00:40:21.207Z,98720.88
2022-11-19T00:41:53.112Z,98727.78
2022-11-19T00:43:43.498Z,98738.19
2022-11-19T00:45:15.455Z,98738.31
2022-11-19T00:46:47.338Z,98739.31
2022-11-19T00:48:19.280Z,98747.25
2022-11-19T00:49:51.179Z,98756.81
2022-11-19T00:51:23.450Z,98762.78
2022-11-19T00:52:55.306Z,98771.38
2022-11-19T00:54:27.181Z,98768.69
2022-11-19T00:56:02.730Z,98774.75
2022-11-19T00:57:34.694Z,98777.50
2022-11-19T00:59:06.567Z,98778.41
2022-11-19T01:00:39.325Z,98785.38
2022-11-19T01:02:11.711Z,98778.47
2022-11-19T01:03:45.701Z,98779.41
2022-11-19T01:05:17.594Z,98793.31
2022-11-19T01:06:49.464Z,98800.28
2022-11-19T01:08:21.336Z,98798.44
2022-11-19T01:09:53.280Z,98806.31
2022-11-19T01:11:28.374Z,98799.38
2022-11-19T01:13:18.661Z,98808.91
2022-11-19T01:14:50.581Z,98799.38
2022-11-19T01:16:26.694Z,98799.38
2022-11-19T01:19:30.314Z,98813.22
2022-11-19T01:21:02.288Z,98825.38
2022-11-19T01:22:34.178Z,98825.28
2022-11-19T01:24:06.202Z,98827.06
2022-11-19T01:25:38.136Z,98823.63
2022-11-19T01:27:09.979Z,98824.53
2022-11-19T01:28:42.305Z,98828.88
2022-11-19T01:30:14.323Z,98837.63
2022-11-19T01:31:46.143Z,98840.28
2022-11-19T01:33:18.221Z,98833.38
2022-11-19T01:34:50.707Z,98830.88
2022-11-19T01:36:23.790Z,98833.53
2022-11-19T01:37:55.758Z,98832.75
2022-11-19T01:39:27.700Z,98831.06
2022-11-19T01:40:59.618Z,98831.94
2022-11-19T01:42:51.279Z,98827.63
2022-11-19T01:44:41.927Z,98818.16
2022-11-19T01:46:14.967Z,98822.47
2022-11-19T01:47:49.155Z,98827.69
2022-11-19T01:49:21.336Z,98841.63
2022-11-19T01:50:54.763Z,98843.38
2022-11-19T01:53:59.292Z,98850.31
2022-11-19T01:55:31.407Z,98855.53
2022-11-19T01:57:04.358Z,98857.22
2022-11-19T01:58:39.756Z,98864.19
2022-11-19T02:00:11.901Z,98858.13
2022-11-19T02:01:44.697Z,98867.69
2022-11-19T02:03:17.203Z,98866.03
2022-11-19T02:04:51.974Z,98870.34
2022-11-19T02:06:23.805Z,98870.44
2022-11-19T02:07:57.164Z,98883.56
2022-11-19T02:09:28.976Z,98867.28
2022-11-19T02:11:21.087Z,98877.81
2022-11-19T02:13:19.083Z,98867.56
2022-11-19T02:14:54.895Z,98872.03
2022-11-19T02:16:29.114Z,98876.53
2022-11-19T02:18:12.986Z,98863.69
2022-11-19T02:20:04.035Z,98861.19
2022-11-19T02:23:29.821Z,98877.00
2022-11-19T02:25:20.243Z,98874.56
2022-11-19T02:26:52.267Z,98875.44
2022-11-19T02:28:42.775Z,98885.84
2022-11-19T02:30:16.899Z,98888.44
2022-11-19T03:26:37.612Z,99036.09
2022-11-19T03:28:10.816Z,99033.44
2022-11-19T03:29:43.783Z,99036.94
2022-11-19T03:31:15.586Z,99038.69
2022-11-19T03:32:51.951Z,99035.16
2022-11-19T03:34:23.846Z,99033.44
2022-11-19T03:35:58.444Z,99037.72
2022-11-19T03:37:30.938Z,99035.13
2022-11-19T03:39:04.688Z,99042.03
2022-11-19T03:40:36.571Z,99044.66
2022-11-19T03:42:09.774Z,99051.53
2022-11-19T03:43:42.008Z,99054.13
2022-11-19T03:45:15.122Z,99061.13
2022-11-19T03:46:47.242Z,99057.72
2022-11-19T03:48:19.154Z,99060.50
2022-11-19T03:49:52.631Z,99061.47
2022-11-19T03:51:36.361Z,99059.84
2022-11-19T03:53:08.179Z,99065.03
2022-11-19T03:54:41.397Z,99062.63
2022-11-19T03:56:14.049Z,99074.88
2022-11-19T03:57:45.847Z,99093.16
2022-11-19T03:59:18.111Z,99101.81
2022-11-19T04:00:50.269Z,99090.63
2022-11-19T04:02:22.367Z,99087.25
2022-11-19T04:04:12.573Z,99085.50
2022-11-19T04:05:44.414Z,99089.84
2022-11-19T04:07:17.934Z,99078.59
2022-11-19T04:08:49.876Z,99086.38
2022-11-19T04:10:21.805Z,99085.59
2022-11-19T04:13:24.134Z,99074.19
2022-11-19T04:14:56.046Z,99075.16
2022-11-19T04:16:28.055Z,99089.16
2022-11-19T04:18:02.163Z,99092.66
2022-11-19T04:19:34.117Z,99090.13
2022-11-19T04:21:06.052Z,99094.47
2022-11-19T04:22:40.745Z,99099.66
2022-11-19T04:24:13.473Z,99094.56
2022-11-19T04:25:48.394Z,99100.72
2022-11-19T04:27:20.246Z,99109.56
2022-11-19T04:28:52.133Z,99115.72
2022-11-19T04:30:24.193Z,99124.50
2022-11-19T04:31:56.305Z,99128.16
2022-11-19T04:33:28.180Z,99133.56
2022-11-19T04:34:59.980Z,99141.44
2022-11-19T04:36:31.880Z,99138.88
2022-11-19T04:38:03.936Z,99137.16
2022-11-19T04:39:35.748Z,99143.28
2022-11-19T04:41:07.686Z,99145.91
2022-11-19T04:42:39.569Z,99150.31
2022-11-19T04:44:11.429Z,99151.94
2022-11-19T04:45:43.234Z,99156.25
2022-11-19T04:47:15.211Z,99158.78
2022-11-19T04:48:47.164Z,99172.56
2022-11-19T04:50:19.231Z,99168.22
2022-11-19T04:51:51.083Z,99178.47
2022-11-19T04:53:23.001Z,99181.03
2022-11-19T04:56:26.676Z,99191.31
2022-11-19T04:57:58.643Z,99196.41
2022-11-19T04:59:30.473Z,99197.34
2022-11-19T05:01:02.357Z,99203.41
2022-11-19T05:02:34.214Z,99195.63
2022-11-19T05:04:06.236Z,99193.94
2022-11-19T05:05:38.205Z,99198.38
2022-11-19T05:07:10.359Z,99208.81
2022-11-19T05:08:42.518Z,99216.59
2022-11-19T05:10:14.414Z,99207.22
2022-11-19T05:11:46.294Z,99211.56
2022-11-19T05:13:18.277Z,99211.56
2022-11-19T05:14:51.531Z,99228.03
2022-11-19T05:16:23.433Z,99233.22
2022-11-19T05:17:55.363Z,99231.44
2022-11-19T05:19:27.280Z,99227.94
2022-11-19T05:20:59.158Z,99217.56
2022-11-19T05:22:31.243Z,99217.66
2022-11-19T05:24:03.172Z,99241.84
2022-11-19T05:25:35.099Z,99254.81
2022-11-19T05:27:06.960Z,99257.38
2022-11-19T05:28:39.999Z,99248.78
2022-11-19T05:30:15.141Z,99256.50
2022-11-19T05:31:47.051Z,99253.03
2022-11-19T05:33:20.074Z,99252.13
2022-11-19T05:34:52.106Z,99255.63
2022-11-19T05:36:24.008Z,99265.09
2022-11-19T05:37:56.031Z,99269.47
2022-11-19T05:39:28.489Z,99266.97
2022-11-19T05:41:00.668Z,99274.75
2022-11-19T05:42:32.514Z,99269.47
2022-11-19T05:44:04.536Z,99278.97
2022-11-19T05:45:36.622Z,99285.81
2022-11-19T05:47:08.515Z,99281.41
2022-11-19T05:48:40.636Z,99286.56
2022-11-19T05:50:14.617Z,99294.22
2022-11-19T05:51:46.978Z,99291.59
2022-11-19T05:53:18.852Z,99290.63
2022-11-19T05:54:50.783Z,99289.75
2022-11-19T05:56:22.705Z,99298.34
2022-11-19T05:57:54.605Z,99310.38
2022-11-19T05:59:26.606Z,99318.97
2022-11-19T06:00:59.272Z,99314.66
2022-11-19T06:02:31.465Z,99314.53
2022-11-19T06:04:03.532Z,99302.41
2022-11-19T06:05:40.093Z,99305.00
2022-11-19T06:07:12.624Z,99308.44
2022-11-19T06:08:44.553Z,99311.84
2022-11-19T06:10:16.822Z,99320.50
2022-11-19T06:11:48.866Z,99329.97
2022-11-19T06:13:20.786Z,99329.97
2022-11-19T06:14:52.713Z,99336.00
2022-11-19T06:16:24.631Z,99347.25
2022-11-19T06:17:57.137Z,99352.31
2022-11-19T06:19:29.126Z,99344.44
2022-11-19T06:21:01.192Z,99351.28
2022-11-19T06:22:33.117Z,99342.56
2022-11-19T06:24:05.705Z,99356.44
2022-11-19T06:25:37.613Z,99364.16
2022-11-19T06:27:09.467Z,99360.63
2022-11-19T06:28:41.307Z,99371.81
2022-11-19T06:30:13.984Z,99379.47
2022-11-19T06:31:46.226Z,99380.22
2022-11-19T06:33:18.079Z,99384.47
2022-11-19T06:34:50.086Z,99377.53
2022-11-19T06:36:22.232Z,99384.34
2022-11-19T06:37:54.289Z,99387.75
2022-11-19T06:39:26.331Z,99388.53
2022-11-19T06:40:58.232Z,99386.75
2022-11-19T06:42:39.219Z,99387.50
2022-11-19T06:44:11.103Z,99392.56
2022-11-19T06:45:43.195Z,99390.75
2022-11-19T06:47:15.070Z,99395.91
2022-11-19T06:48:46.986Z,99404.47
2022-11-19T06:50:18.986Z,99400.88
2022-11-19T06:51:50.954Z,99405.94
2022-11-19T06:53:23.121Z,99404.94
2022-11-19T06:54:54.965Z,99407.44
2022-11-19T06:56:26.978Z,99402.97
2022-11-19T06:58:02.058Z,99414.13
2022-11-19T06:59:35.368Z,99412.25
2022-11-19T07:01:07.460Z,99405.13
2022-11-19T07:02:39.486Z,99416.28
2022-11-19T07:04:11.477Z,99414.44
2022-11-19T07:05:43.485Z,99414.41
2022-11-19T07:07:15.510Z,99411.72
2022-11-19T07:08:47.557Z,99420.25
2022-11-19T07:10:19.769Z,99422.69
2022-11-19T07:11:51.767Z,99423.44
2022-11-19T07:13:23.765Z,99426.84
2022-11-19T07:14:59.721Z,99432.84
2022-11-19T07:16:35.645Z,99421.63
2022-11-19T07:18:07.581Z,99424.09
2022-11-19T07:19:39.550Z,99436.19
2022-11-19T07:21:11.457Z,99432.72
2022-11-19T07:24:18.101Z,99428.44
2022-11-19T07:25:50.169Z,99410.19
2022-11-19T07:27:22.122Z,99416.09
2022-11-19T07:28:54.332Z,99420.28
2022-11-19T07:30:26.388Z,99415.78
2022-11-19T07:31:58.626Z,99415.72
2022-11-19T07:33:30.625Z,99432.00
2022-11-19T07:35:02.871Z,99434.59
2022-11-19T07:36:35.188Z,99442.22
2022-11-19T07:38:07.552Z,99430.94
2022-11-19T07:39:39.458Z,99435.25
2022-11-19T07:41:30.493Z,99429.91
2022-11-19T07:43:02.843Z,99437.53
2022-11-19T07:44:34.929Z,99433.13
2022-11-19T07:46:07.452Z,99448.69
2022-11-19T07:47:39.939Z,99438.22
2022-11-19T07:49:11.960Z,99437.38
2022-11-19T07:50:55.148Z,99435.56
2022-11-19T07:52:31.238Z,99433.88
2022-11-19T07:54:03.481Z,99434.53
2022-11-19T07:55:35.505Z,99450.03
2022-11-19T07:57:07.664Z,99449.00
2022-11-19T08:00:15.137Z,99443.56
2022-11-19T08:01:47.110Z,99442.63
2022-11-19T08:03:19.885Z,99442.47
2022-11-19T08:04:52.062Z,99446.75
2022-11-19T08:06:26.645Z,99446.66
2022-11-19T08:07:59.127Z,99449.13
2022-11-19T08:09:31.322Z,99449.81
2022-11-19T08:11:04.420Z,99449.69
2022-11-19T08:12:36.858Z,99455.66
2022-11-19T08:14:09.246Z,99452.97
2022-11-19T08:15:41.454Z,99450.22
2022-11-19T08:17:31.997Z,99464.03
2022-11-19T08:19:08.273Z,99463.97
2022-11-19T08:20:40.931Z,99471.84
2022-11-19T08:22:12.972Z,99470.03
2022-11-19T08:23:44.902Z,99472.59
2022-11-19T08:25:16.729Z,99474.09
2022-11-19T08:28:35.380Z,99475.00
2022-11-19T08:30:08.855Z,99480.94
2022-11-19T08:31:41.837Z,99473.91
2022-11-19T08:33:13.974Z,99475.59
2022-11-19T08:34:45.979Z,99474.66
2022-11-19T08:36:18.185Z,99485.47
2022-11-19T08:37:50.676Z,99487.19
2022-11-19T08:39:22.712Z,99489.72
2022-11-19T08:41:17.285Z,99487.22
2022-11-19T08:43:02.024Z,99493.50
2022-11-19T08:44:34.083Z,99499.47
2022-11-19T08:46:06.032Z,99496.69
2022-11-19T08:47:38.155Z,99494.81
2022-11-19T08:49:10.528Z,99496.44
2022-11-19T08:50:42.692Z,99499.00
2022-11-19T08:52:14.734Z,99502.34
2022-11-19T08:53:47.281Z,99504.00
2022-11-19T08:55:19.353Z,99494.47
2022-11-19T08:58:24.773Z,99478.75
2022-11-19T08:59:59.120Z,99490.88
2022-11-19T09:01:35.147Z,99482.13
2022-11-19T09:03:07.309Z,99490.69
2022-11-19T09:04:39.357Z,99491.47
2022-11-19T09:06:11.506Z,99487.09
2022-11-19T09:07:43.685Z,99488.94
2022-11-19T09:09:16.045Z,99491.47
2022-11-19T09:10:49.073Z,99493.94
2022-11-19T09:12:21.203Z,99487.69
2022-11-19T09:13:53.170Z,99487.59
2022-11-19T09:15:25.231Z,99482.13
2022-11-19T09:16:57.251Z,99475.75
2022-11-19T09:18:29.576Z,99471.13
2022-11-19T09:20:01.704Z,99468.47
2022-11-19T09:21:33.850Z,99478.00
2022-11-19T09:23:05.884Z,99478.84
2022-11-19T09:24:37.908Z,99475.91
2022-11-19T09:26:12.470Z,99469.97
2022-11-19T09:27:44.708Z,99487.03
2022-11-19T09:29:16.876Z,99479.84
2022-11-19T09:31:04.468Z,99483.09
2022-11-19T09:32:39.700Z,99470.81
2022-11-19T09:34:11.910Z,99475.00
2022-11-19T09:35:44.029Z,99475.78
2022-11-19T09:37:16.230Z,99482.63
2022-11-19T09:38:48.770Z,99474.63
2022-11-19T09:40:21.756Z,99473.72
2022-11-19T09:42:12.538Z,99473.72
2022-11-19T09:43:47.776Z,99474.50
2022-11-19T09:45:20.086Z,99471.63
2022-11-19T09:47:18.271Z,99470.84
2022-11-19T09:48:50.910Z,99467.31
2022-11-19T09:50:23.695Z,99463.53
2022-11-19T09:51:57.700Z,99464.16
2022-11-19T09:53:32.481Z,99467.50
2022-11-19T09:55:04.721Z,99474.41
2022-11-19T09:56:38.074Z,99467.22
2022-11-19T09:58:15.258Z,99468.91
2022-11-19T09:59:47.307Z,99466.25
2022-11-19T10:01:19.694Z,99468.06
2022-11-19T10:02:52.292Z,99470.56
2022-11-19T10:04:25.826Z,99463.56
2022-11-19T10:06:18.407Z,99452.13
2022-11-19T10:07:53.632Z,99452.97
2022-11-19T10:09:54.854Z,99459.84
2022-11-19T10:11:31.900Z,99460.63
2022-11-19T10:13:12.624Z,99451.88
2022-11-19T10:14:47.817Z,99447.38
2022-11-19T10:16:41.739Z,99439.47
2022-11-19T10:18:29.143Z,99431.56
2022-11-19T10:20:09.371Z,99435.94
2022-11-19T10:22:04.713Z,99427.19
2022-11-19T10:23:55.286Z,99427.25
2022-11-19T10:25:33.352Z,99425.34
2022-11-19T10:27:10.952Z,99416.59
2022-11-19T10:29:03.608Z,99415.53
2022-11-19T10:32:19.681Z,99416.59
2022-11-19T10:34:01.442Z,99426.75
2022-11-19T10:35:34.864Z,99404.16
2022-11-19T10:37:09.310Z,99414.47
2022-11-19T10:38:58.038Z,99410.16
2022-11-19T10:40:40.501Z,99407.72
2022-11-19T10:42:18.213Z,99392.88
2022-11-19T10:43:56.458Z,99392.16
2022-11-19T10:45:30.154Z,99385.88
2022-11-19T10:47:02.493Z,99383.94
2022-11-19T10:48:38.803Z,99388.09
2022-11-19T10:50:18.173Z,99385.47
2022-11-19T10:51:50.616Z,99388.50
2022-11-19T10:53:25.559Z,99383.16
2022-11-19T10:54:59.794Z,99386.59
2022-11-19T10:56:36.677Z,99386.88
2022-11-19T10:58:11.411Z,99403.47
2022-11-19T10:59:43.615Z,99405.31
2022-11-19T11:01:24.868Z,99417.16
2022-11-19T11:03:03.475Z,99411.88
2022-11-19T11:04:38.612Z,99400.22
2022-11-19T11:06:11.435Z,99401.91
2022-11-19T11:07:50.319Z,99392.59
2022-11-19T11:09:39.246Z,99377.66
2022-11-19T11:11:11.297Z,99388.03
2022-11-19T11:13:01.766Z,99391.53
2022-11-19T11:14:52.120Z,99392.84
2022-11-19T11:16:31.587Z,99391.56
2022-11-19T11:18:06.909Z,99388.22
2022-11-19T11:19:39.083Z,99390.72
2022-11-19T11:21:29.708Z,99394.28
2022-11-19T11:23:04.731Z,99395.06
2022-11-19T11:24:39.942Z,99398.28
2022-11-19T11:26:12.663Z,99388.81
2022-11-19T11:27:44.722Z,99389.06
2022-11-19T11:29:16.642Z,99392.34
2022-11-19T11:30:55.974Z,99386.22
2022-11-19T11:32:29.271Z,99373.22
2022-11-19T11:34:03.031Z,99369.00
2022-11-19T11:35:36.473Z,99369.94
2022-11-19T11:37:09.092Z,99373.22
2022-11-19T11:38:46.888Z,99375.84
2022-11-19T11:40:19.497Z,99378.59
2022-11-19T11:42:05.407Z,99378.59
2022-11-19T11:43:39.316Z,99384.72
2022-11-19T11:45:17.210Z,99386.22
2022-11-19T11:46:52.682Z,99385.13
2022-11-19T11:48:24.717Z,99397.13
2022-11-19T11:49:59.780Z,99388.13
2022-11-19T11:51:35.756Z,99383.28
2022-11-19T11:53:08.765Z,99382.63
2022-11-19T11:54:56.014Z,99388.69
2022-11-19T11:56:27.965Z,99379.97
2022-11-19T11:58:01.310Z,99384.41
2022-11-19T11:59:36.488Z,99382.81
2022-11-19T12:01:15.984Z,99383.16
2022-11-19T12:02:59.876Z,99390.34
2022-11-19T12:06:11.908Z,99393.94
2022-11-19T12:07:44.165Z,99393.94
2022-11-19T12:09:19.384Z,99400.66
2022-11-19T12:10:57.360Z,99403.56
2022-11-19T12:12:29.282Z,99399.94
2022-11-19T12:14:09.497Z,99398.16
2022-11-19T12:15:51.882Z,99394.50
2022-11-19T12:17:42.066Z,99392.34
2022-11-19T12:19:14.191Z,99390.72
2022-11-19T12:20:48.812Z,99386.19
2022-11-19T12:22:36.100Z,99395.50
2022-11-19T12:24:16.065Z,99401.38
2022-11-19T12:26:13.042Z,99409.09
2022-11-19T12:27:44.977Z,99410.16
2022-11-19T12:29:17.216Z,99408.72
2022-11-19T12:31:08.102Z,99410.88
2022-11-19T12:32:39.991Z,99409.97
2022-11-19T12:36:03.682Z,99403.72
2022-11-19T12:37:44.912Z,99405.94
2022-11-19T12:39:35.576Z,99409.25
2022-11-19T12:41:14.443Z,99407.78
2022-11-19T12:42:49.764Z,99405.81
2022-11-19T12:44:29.268Z,99410.31
2022-11-19T12:46:01.291Z,99405.94
2022-11-19T12:47:45.243Z,99402.06
2022-11-19T12:49:36.035Z,99398.78
2022-11-19T12:51:08.223Z,99396.28
2022-11-19T12:52:45.986Z,99411.09
2022-11-19T12:54:33.382Z,99417.31
2022-11-19T12:56:25.496Z,99422.72
2022-11-19T12:57:57.460Z,99430.50
2022-11-19T13:00:01.989Z,99434.03
2022-11-19T13:01:34.988Z,99439.44
2022-11-19T13:03:12.010Z,99435.41
2022-11-19T13:04:45.261Z,99440.97
2022-11-19T13:06:25.677Z,99449.31
2022-11-19T13:08:16.442Z,99448.53
2022-11-19T13:09:49.314Z,99446.69
2022-11-19T13:11:36.719Z,99449.44
2022-11-19T13:13:09.217Z,99449.50
2022-11-19T13:14:41.908Z,99462.56
2022-11-19T13:16:17.469Z,99456.75
2022-11-19T13:17:50.887Z,99460.63
2022-11-19T13:19:23.307Z,99450.03
2022-11-19T13:21:04.950Z,99450.97
2022-11-19T13:22:37.764Z,99461.41
2022-11-19T13:24:28.702Z,99475.34
2022-11-19T13:26:07.805Z,99471.75
2022-11-19T13:27:39.957Z,99461.41
2022-11-19T13:29:30.615Z,99459.63
2022-11-19T13:31:04.452Z,99462.56
2022-11-19T13:32:54.811Z,99462.16
2022-11-19T13:34:28.504Z,99460.34
2022-11-19T13:36:00.683Z,99463.25
2022-11-19T13:39:13.901Z,99463.84
2022-11-19T13:40:47.483Z,99465.63
2022-11-19T13:42:37.985Z,99463.41
2022-11-19T13:44:28.982Z,99464.44
2022-11-19T13:46:18.238Z,99478.97
2022-11-19T13:47:58.127Z,99481.47
2022-11-19T13:49:34.104Z,99489.41
2022-11-19T13:51:10.367Z,99482.69
2022-11-19T13:52:47.377Z,99484.53
2022-11-19T13:54:23.990Z,99479.31
2022-11-19T13:55:56.382Z,99473.06
2022-11-19T13:57:35.477Z,99481.38
2022-11-19T13:59:07.461Z,99472.53
2022-11-19T14:00:39.320Z,99477.75
2022-11-19T14:02:11.339Z,99478.38
2022-11-19T14:03:49.469Z,99485.41
2022-11-19T14:05:30.713Z,99477.50
2022-11-19T14:07:17.824Z,99470.63
2022-11-19T14:09:08.591Z,99476.63
2022-11-19T14:10:59.407Z,99488.69
2022-11-19T14:12:49.896Z,99493.97
2022-11-19T14:14:59.542Z,99502.56
2022-11-19T14:16:49.814Z,99501.66
2022-11-19T14:18:42.411Z,99499.97
2022-11-19T14:20:56.341Z,99489.47
2022-11-19T14:22:51.412Z,99496.38
2022-11-19T14:24:44.791Z,99495.53
2022-11-19T14:26:36.763Z,99501.59
2022-11-19T14:28:40.983Z,99507.66
2022-11-19T14:30:17.242Z,99500.75
2022-11-19T14:32:01.307Z,99505.13
2022-11-19T14:33:48.410Z,99506.88
2022-11-19T14:35:23.376Z,99500.03
2022-11-19T14:36:58.617Z,99500.06
2022-11-19T14:38:34.925Z,99498.47
2022-11-19T14:40:12.893Z,99498.59
2022-11-19T14:41:45.381Z,99509.91
2022-11-19T14:43:35.981Z,99504.75
2022-11-19T14:45:07.980Z,99504.75
2022-11-19T14:46:41.530Z,99513.50
2022-11-19T14:48:13.505Z,99508.28
2022-11-19T14:49:47.069Z,99510.94
2022-11-19T14:51:37.284Z,99497.97
2022-11-19T14:53:16.434Z,99497.19
2022-11-19T14:54:53.417Z,99495.72
2022-11-19T14:56:25.407Z,99488.91
2022-11-19T14:58:06.534Z,99483.81
2022-11-19T14:59:38.765Z,99483.16
2022-11-19T15:01:15.461Z,99479.84
2022-11-19T15:02:50.730Z,99480.03
2022-11-19T15:04:23.404Z,99487.94
2022-11-19T15:05:55.476Z,99496.78
2022-11-19T15:07:33.553Z,99493.41
2022-11-19T15:09:05.779Z,99491.78
2022-11-19T15:10:58.095Z,99489.34
2022-11-19T15:12:45.179Z,99491.31
2022-11-19T15:14:38.596Z,99501.03
2022-11-19T15:16:17.887Z,99506.25
2022-11-19T15:17:51.061Z,99512.44
2022-11-19T15:19:25.850Z,99510.72
2022-11-19T15:21:02.609Z,99509.00
2022-11-19T15:22:46.636Z,99514.19
2022-11-19T15:24:37.203Z,99503.84
2022-11-19T15:26:12.230Z,99515.09
2022-11-19T15:27:46.882Z,99518.53
2022-11-19T15:29:24.490Z,99513.41
2022-11-19T15:31:15.713Z,99510.00
2022-11-19T15:32:51.504Z,99499.69
2022-11-19T15:34:23.566Z,99498.03
2022-11-19T15:35:55.571Z,99510.13
2022-11-19T15:39:12.964Z,99509.31
2022-11-19T15:40:46.393Z,99508.53
2022-11-19T15:42:22.353Z,99512.09
2022-11-19T15:43:54.662Z,99513.06
2022-11-19T15:45:26.579Z,99512.28
2022-11-19T15:46:59.756Z,99508.06
2022-11-19T15:48:51.998Z,99518.56
2022-11-19T15:50:24.728Z,99524.69
2022-11-19T15:52:07.199Z,99529.09
2022-11-19T15:53:39.165Z,99536.91
2022-11-19T15:55:21.127Z,99544.72
2022-11-19T15:56:53.288Z,99549.13
2022-11-19T15:58:26.596Z,99553.56
2022-11-19T16:00:01.338Z,99559.63
2022-11-19T16:01:33.654Z,99553.56
2022-11-19T16:03:05.788Z,99538.84
2022-11-19T16:04:38.268Z,99537.25
2022-11-19T16:06:22.452Z,99539.19
2022-11-19T16:07:54.576Z,99539.28
2022-11-19T16:09:29.598Z,99542.00
2022-11-19T16:11:20.880Z,99534.34
2022-11-19T16:13:12.143Z,99529.22
2022-11-19T16:15:07.819Z,99514.56
2022-11-19T16:16:58.392Z,99522.66
2022-11-19T16:18:30.695Z,99522.88
2022-11-19T16:20:03.827Z,99535.06
2022-11-19T16:21:38.095Z,99523.78
2022-11-19T16:23:10.179Z,99540.19
2022-11-19T16:25:00.873Z,99544.59
2022-11-19T16:26:36.447Z,99536.78
2022-11-19T16:28:11.160Z,99535.91
2022-11-19T16:29:43.444Z,99541.13
2022-11-19T16:31:15.688Z,99543.78
2022-11-19T16:32:47.695Z,99552.53
2022-11-19T16:34:41.130Z,99556.88
2022-11-19T16:36:17.323Z,99539.84
2022-11-19T16:37:49.455Z,99545.91
2022-11-19T16:39:25.394Z,99548.56
2022-11-19T16:41:16.043Z,99546.91
2022-11-19T16:42:58.011Z,99561.72
2022-11-19T16:44:30.235Z,99568.72
2022-11-19T16:46:02.326Z,99572.19
2022-11-19T16:47:34.300Z,99583.59
2022-11-19T16:49:11.515Z,99584.44
2022-11-19T16:50:46.651Z,99581.88
2022-11-19T16:52:50.940Z,99573.19
2022-11-19T16:54:41.729Z,99581.91
2022-11-19T16:56:16.952Z,99574.13
2022-11-19T16:58:02.159Z,99576.78
2022-11-19T16:59:34.248Z,99579.44
2022-11-19T17:01:06.337Z,99566.47
2022-11-19T17:02:38.906Z,99559.63
2022-11-19T17:04:12.563Z,99559.72
2022-11-19T17:05:45.400Z,99565.03
2022-11-19T17:07:26.863Z,99570.34
2022-11-19T17:09:01.621Z,99581.63
2022-11-19T17:12:28.308Z,99592.03
2022-11-19T17:14:10.918Z,99590.34
2022-11-19T17:15:46.939Z,99590.44
2022-11-19T17:17:24.879Z,99594.81
2022-11-19T17:18:57.091Z,99599.16
2022-11-19T17:20:29.960Z,99597.38
2022-11-19T17:22:03.376Z,99595.66
2022-11-19T17:23:37.613Z,99589.63
2022-11-19T17:25:13.543Z,99588.94
2022-11-19T17:26:47.441Z,99584.75
2022-11-19T17:28:26.261Z,99590.94
2022-11-19T17:30:03.081Z,99594.44
2022-11-19T17:31:35.283Z,99591.94
2022-11-19T17:33:07.467Z,99585.94
2022-11-19T17:34:44.662Z,99584.22
2022-11-19T17:36:17.048Z,99585.16
2022-11-19T17:37:49.193Z,99571.41
2022-11-19T17:39:25.661Z,99567.97
2022-11-19T17:40:58.790Z,99561.22
2022-11-19T17:42:49.280Z,99552.72
2022-11-19T17:44:37.751Z,99550.28
2022-11-19T17:46:09.974Z,99548.56
2022-11-19T17:47:42.178Z,99545.13
2022-11-19T17:49:14.413Z,99552.13
2022-11-19T17:50:46.817Z,99549.56
2022-11-19T17:52:21.953Z,99541.72
2022-11-19T17:53:54.956Z,99541.72
2022-11-19T17:55:27.147Z,99547.75
2022-11-19T17:56:59.434Z,99552.06
2022-11-19T17:58:31.502Z,99558.16
2022-11-19T18:00:03.900Z,99574.56
2022-11-19T18:01:36.251Z,99578.09
2022-11-19T18:03:11.900Z,99581.56
2022-11-19T18:04:44.566Z,99569.44
2022-11-19T18:06:16.974Z,99564.28
2022-11-19T18:07:49.083Z,99554.81
2022-11-19T18:09:21.207Z,99543.69
2022-11-19T18:10:53.211Z,99548.16
2022-11-19T18:12:25.274Z,99545.75
2022-11-19T18:13:58.448Z,99530.38
2022-11-19T18:15:31.439Z,99519.28
2022-11-19T18:17:04.407Z,99515.16
2022-11-19T18:18:38.997Z,99518.66
2022-11-19T18:20:11.458Z,99523.00
2022-11-19T18:21:43.679Z,99532.53
2022-11-19T18:23:15.821Z,99540.19
2022-11-19T18:24:48.718Z,99548.00
2022-11-19T18:26:22.947Z,99548.84
2022-11-19T18:27:55.094Z,99530.66
2022-11-19T18:29:30.197Z,99519.47
2022-11-19T18:31:02.195Z,99516.19
2022-11-19T18:32:34.233Z,99529.28
2022-11-19T18:34:06.342Z,99531.94
2022-11-19T18:35:38.451Z,99526.78
2022-11-19T18:37:10.886Z,99527.69
2022-11-19T18:38:43.162Z,99518.31
2022-11-19T18:40:15.640Z,99510.75
2022-11-19T18:41:47.600Z,99500.66
2022-11-19T18:43:40.065Z,99505.97
2022-11-19T18:45:12.440Z,99507.84
2022-11-19T18:46:44.758Z,99503.56
2022-11-19T18:48:16.727Z,99507.91
2022-11-19T18:49:48.836Z,99508.78
2022-11-19T18:51:21.076Z,99501.00
2022-11-19T18:52:53.294Z,99497.56
2022-11-19T18:54:25.493Z,99488.16
2022-11-19T18:55:57.627Z,99486.59
2022-11-19T18:57:29.900Z,99485.09
2022-11-19T18:59:04.933Z,99480.13
2022-11-19T19:00:37.358Z,99485.41
2022-11-19T19:02:10.046Z,99472.50
2022-11-19T19:03:42.220Z,99465.72
2022-11-19T19:05:14.501Z,99454.66
2022-11-19T19:06:46.622Z,99453.22
2022-11-19T19:08:18.583Z,99456.84
2022-11-19T19:09:50.485Z,99456.88
2022-11-19T19:11:41.111Z,99459.50
2022-11-19T19:13:15.712Z,99466.38
2022-11-19T19:14:48.715Z,99466.44
2022-11-19T19:16:20.966Z,99461.22
2022-11-19T19:17:52.840Z,99464.59
2022-11-19T19:19:24.762Z,99460.31
2022-11-19T19:20:56.599Z,99444.13
2022-11-19T19:22:29.276Z,99440.16
2022-11-19T19:24:01.340Z,99437.88
2022-11-19T19:25:33.443Z,99434.63
2022-11-19T19:27:05.914Z,99439.97
2022-11-19T19:28:37.970Z,99450.41
2022-11-19T19:30:10.307Z,99459.03
2022-11-19T19:31:42.662Z,99443.59
2022-11-19T19:33:14.844Z,99453.03
2022-11-19T19:34:46.749Z,99458.22
2022-11-19T19:36:19.197Z,99454.78
2022-11-19T19:37:51.272Z,99454.06
2022-11-19T19:39:23.479Z,99454.94
2022-11-19T19:40:55.822Z,99445.53
2022-11-19T19:42:28.927Z,99454.09
2022-11-19T19:44:01.767Z,99456.66
2022-11-19T19:45:35.122Z,99450.72
2022-11-19T19:47:07.253Z,99454.34
2022-11-19T19:48:39.316Z,99449.31
2022-11-19T19:50:11.278Z,99451.06
2022-11-19T19:51:43.197Z,99433.88
2022-11-19T19:53:15.093Z,99433.13
2022-11-19T19:54:46.997Z,99427.25
2022-11-19T19:56:20.203Z,99421.38
2022-11-19T19:57:52.209Z,99419.63
2022-11-19T19:59:24.634Z,99417.03
2022-11-19T20:01:02.939Z,99418.69
2022-11-19T20:02:38.083Z,99415.34
2022-11-19T20:04:11.183Z,99419.66